TimePDT,TemperatureF,Dew PointF,Humidity,Sea Level PressureIn,VisibilityMPH,Wind Direction,Wind SpeedMPH,Gust SpeedMPH,PrecipitationIn,Events,Conditions,WindDirDegrees,DateUTC
12:21 AM,48.2,46.4,93,30.17,4.0,South,8.1,-,0.01,,Light Drizzle,180,2013-03-15 07:21:00
12:53 AM,48.9,46.9,93,30.19,5.0,South,9.2,-,0.01,,Light Drizzle,180,2013-03-15 07:53:00
1:15 AM,48.2,46.4,93,30.17,6.0,SSW,6.9,-,0.00,,Mostly Cloudy,200,2013-03-15 08:15:00
1:25 AM,48.2,46.4,93,30.17,6.0,South,8.1,-,0.00,,Mostly Cloudy,190,2013-03-15 08:25:00
1:38 AM,48.2,46.4,93,30.17,6.0,South,5.8,-,0.00,,Light Drizzle,190,2013-03-15 08:38:00
2:13 AM,48.2,46.4,93,30.17,7.0,South,8.1,-,0.00,,Mostly Cloudy,170,2013-03-15 09:13:00
2:40 AM,48.2,46.4,93,30.18,6.0,South,6.9,-,0.00,,Light Drizzle,180,2013-03-15 09:40:00
2:53 AM,48.9,46.9,93,30.20,7.0,South,6.9,-,0.00,,Overcast,180,2013-03-15 09:53:00
3:16 AM,50.0,46.4,87,30.18,7.0,SSW,11.5,-,0.00,Rain,Light Rain,200,2013-03-15 10:16:00
3:53 AM,50.0,46.9,89,30.20,10.0,SW,11.5,-,0.00,,Mostly Cloudy,220,2013-03-15 10:53:00
4:33 AM,48.2,46.4,93,30.16,10.0,SSW,11.5,-,0.00,Rain,Light Rain,200,2013-03-15 11:33:00
4:53 AM,48.9,46.0,90,30.19,10.0,SSW,12.7,-,0.00,,Mostly Cloudy,200,2013-03-15 11:53:00
5:27 AM,48.2,46.4,93,30.17,1.5,SSW,13.8,-,N/A,,Overcast,200,2013-03-15 12:27:00
5:53 AM,48.9,46.9,93,30.20,1.5,SSW,11.5,-,N/A,,Overcast,200,2013-03-15 12:53:00
6:53 AM,48.9,46.9,93,30.21,1.5,SSW,8.1,-,N/A,,Overcast,210,2013-03-15 13:53:00
6:56 AM,48.2,46.4,93,30.18,2.0,SSW,10.4,-,N/A,,Overcast,210,2013-03-15 13:56:00
7:53 AM,48.9,46.9,93,30.21,1.0,SW,9.2,-,N/A,,Overcast,220,2013-03-15 14:53:00
8:23 AM,50.0,46.4,87,30.20,7.0,SW,9.2,-,N/A,,Overcast,220,2013-03-15 15:23:00
8:46 AM,50.0,48.2,94,30.20,7.0,SSW,9.2,-,N/A,,Overcast,200,2013-03-15 15:46:00
8:53 AM,50.0,48.0,93,30.22,10.0,SSW,8.1,-,N/A,,Overcast,210,2013-03-15 15:53:00
9:53 AM,51.1,48.9,92,30.25,10.0,SSW,8.1,-,N/A,,Overcast,200,2013-03-15 16:53:00
10:48 AM,51.8,48.2,88,30.22,10.0,SSW,9.2,-,N/A,,Mostly Cloudy,200,2013-03-15 17:48:00
10:53 AM,52.0,48.0,86,30.24,10.0,SSW,10.4,-,N/A,,Mostly Cloudy,200,2013-03-15 17:53:00
11:38 AM,55.4,48.2,77,30.21,10.0,SSW,10.4,-,N/A,,Mostly Cloudy,200,2013-03-15 18:38:00
11:53 AM,55.0,48.9,80,30.23,10.0,SSW,10.4,-,N/A,,Mostly Cloudy,200,2013-03-15 18:53:00
12:50 PM,55.4,48.2,77,30.22,10.0,SW,11.5,-,N/A,,Mostly Cloudy,220,2013-03-15 19:50:00
12:53 PM,55.0,48.0,77,30.24,10.0,SW,11.5,-,N/A,,Mostly Cloudy,230,2013-03-15 19:53:00
1:13 PM,55.4,48.2,77,30.22,10.0,SW,8.1,-,N/A,,Mostly Cloudy,220,2013-03-15 20:13:00
1:53 PM,57.0,46.9,69,30.23,10.0,SSW,12.7,-,N/A,,Mostly Cloudy,210,2013-03-15 20:53:00
2:53 PM,57.9,48.0,70,30.21,10.0,SW,10.4,-,N/A,,Mostly Cloudy,220,2013-03-15 21:53:00
3:53 PM,57.0,46.9,69,30.20,10.0,SSW,10.4,-,N/A,,Mostly Cloudy,210,2013-03-15 22:53:00
4:53 PM,57.0,46.9,69,30.19,10.0,SW,8.1,-,N/A,,Overcast,230,2013-03-15 23:53:00
5:53 PM,55.0,46.9,74,30.19,10.0,SW,10.4,-,N/A,,Overcast,230,2013-03-16 00:53:00
6:32 PM,53.6,46.4,77,30.17,10.0,WSW,9.2,-,N/A,,Overcast,250,2013-03-16 01:32:00
6:53 PM,53.1,46.0,77,30.19,10.0,WSW,11.5,20.7,0.00,,Mostly Cloudy,250,2013-03-16 01:53:00
7:23 PM,51.8,46.4,82,30.16,10.0,SW,12.7,-,N/A,,Mostly Cloudy,220,2013-03-16 02:23:00
7:53 PM,52.0,46.0,80,30.18,10.0,SSW,8.1,-,N/A,,Mostly Cloudy,200,2013-03-16 02:53:00
8:53 PM,51.1,45.0,80,30.19,10.0,SSW,9.2,-,N/A,,Mostly Cloudy,210,2013-03-16 03:53:00
9:53 PM,50.0,44.1,80,30.19,10.0,SSW,6.9,-,N/A,,Mostly Cloudy,210,2013-03-16 04:53:00
10:53 PM,48.9,45.0,86,30.18,10.0,SSW,12.7,-,0.00,,Light Drizzle,210,2013-03-16 05:53:00
11:53 PM,48.0,44.1,86,30.17,10.0,SW,6.9,-,0.00,,Mostly Cloudy,230,2013-03-16 06:53:00